createdAt,value
2023-05-12T00:02:14.655Z,23.00
2023-05-12T00:04:42.347Z,23.73
2023-05-12T00:07:09.795Z,23.92
2023-05-12T00:09:38.246Z,23.65
2023-05-12T00:12:06.026Z,22.65
2023-05-12T00:14:33.273Z,21.33
2023-05-12T00:17:00.795Z,20.38
2023-05-12T00:19:28.048Z,19.05
2023-05-12T00:21:55.304Z,20.30
2023-05-12T00:24:22.679Z,20.88
2023-05-12T00:26:49.946Z,19.13
2023-05-12T00:29:18.367Z,20.25
2023-05-12T00:31:45.850Z,18.90
2023-05-12T00:34:13.156Z,17.98
2023-05-12T00:36:40.412Z,17.92
2023-05-12T00:39:07.976Z,16.95
2023-05-12T00:41:35.437Z,18.27
2023-05-12T00:44:02.685Z,16.75
2023-05-12T00:46:31.309Z,17.67
2023-05-12T00:48:59.855Z,17.42
2023-05-12T00:51:28.386Z,16.70
2023-05-12T00:53:57.444Z,16.77
2023-05-12T00:56:26.771Z,18.80
2023-05-12T00:58:54.069Z,16.85
2023-05-12T01:01:21.838Z,18.35
2023-05-12T01:03:53.206Z,17.73
2023-05-12T01:06:38.707Z,18.50
2023-05-12T01:09:08.695Z,20.38
2023-05-12T01:11:36.431Z,18.75
2023-05-12T01:14:04.814Z,17.63
2023-05-12T01:16:41.172Z,17.30
2023-05-12T01:19:36.579Z,18.02
2023-05-12T01:22:04.369Z,17.65
2023-05-12T01:24:36.888Z,17.08
2023-05-12T01:27:05.511Z,18.42
2023-05-12T01:29:33.641Z,17.75
2023-05-12T01:32:03.559Z,19.80
2023-05-12T01:34:34.580Z,20.27
2023-05-12T01:37:02.541Z,18.70
2023-05-12T01:39:30.498Z,16.38
2023-05-12T01:41:58.486Z,18.48
2023-05-12T01:44:26.120Z,19.80
2023-05-12T01:46:53.446Z,16.75
2023-05-12T01:49:22.294Z,18.73
2023-05-12T01:51:50.343Z,18.42
2023-05-12T01:54:23.677Z,20.08
2023-05-12T01:56:51.138Z,19.65
2023-05-12T01:59:18.457Z,18.75
2023-05-12T02:01:45.958Z,19.73
2023-05-12T02:04:16.906Z,19.80
2023-05-12T02:06:46.374Z,18.55
2023-05-12T02:09:13.721Z,21.35
2023-05-12T02:11:41.810Z,19.58
2023-05-12T02:14:09.760Z,19.77
2023-05-12T02:16:38.133Z,21.88
2023-05-12T02:19:05.828Z,19.65
2023-05-12T02:21:33.459Z,21.77
2023-05-12T02:24:00.845Z,21.00
2023-05-12T02:26:28.482Z,20.05
2023-05-12T02:28:56.383Z,19.73
2023-05-12T02:31:24.129Z,20.88
2023-05-12T02:33:53.580Z,19.60
2023-05-12T02:36:21.089Z,19.95
2023-05-12T02:38:48.521Z,21.42
2023-05-12T02:41:16.330Z,19.23
2023-05-12T02:43:44.079Z,21.75
2023-05-12T02:46:12.025Z,20.50
2023-05-12T02:48:39.836Z,21.48
2023-05-12T02:51:07.337Z,23.02
2023-05-12T02:53:34.680Z,22.90
2023-05-12T02:56:02.010Z,21.50
2023-05-12T02:58:29.764Z,22.33
2023-05-12T03:01:09.300Z,21.98
2023-05-12T03:03:37.485Z,21.80
2023-05-12T03:06:06.126Z,21.83
2023-05-12T03:08:33.761Z,21.83
2023-05-12T03:11:01.247Z,23.30
2023-05-12T03:13:31.391Z,21.67
2023-05-12T03:16:01.751Z,22.65
2023-05-12T03:18:32.092Z,22.42
2023-05-12T03:20:59.646Z,22.02
2023-05-12T03:23:27.336Z,26.48
2023-05-12T03:25:55.771Z,23.30
2023-05-12T03:28:26.195Z,24.63
2023-05-12T03:30:54.060Z,24.55
2023-05-12T03:33:21.841Z,25.15
2023-05-12T03:35:51.792Z,22.35
2023-05-12T03:38:20.202Z,22.08
2023-05-12T03:40:52.654Z,23.55
2023-05-12T03:43:21.418Z,23.13
2023-05-12T03:45:49.951Z,24.02
2023-05-12T03:48:17.460Z,22.27
2023-05-12T03:50:44.762Z,22.05
2023-05-12T03:53:12.055Z,23.63
2023-05-12T03:55:39.572Z,23.33
2023-05-12T03:58:08.041Z,26.20
2023-05-12T04:00:38.897Z,24.98
2023-05-12T04:03:08.445Z,23.13
2023-05-12T04:05:39.620Z,23.17
2023-05-12T04:08:07.187Z,22.40
2023-05-12T04:10:42.390Z,24.85
2023-05-12T04:13:09.661Z,25.20
2023-05-12T04:15:37.320Z,22.55
2023-05-12T04:18:04.622Z,24.40
2023-05-12T04:20:31.966Z,25.00
2023-05-12T04:22:59.393Z,24.10
2023-05-12T04:25:26.918Z,23.60
2023-05-12T04:27:54.193Z,23.50
2023-05-12T04:30:22.068Z,24.88
2023-05-12T04:32:50.416Z,24.95
2023-05-12T04:35:17.699Z,25.15
2023-05-12T04:37:45.154Z,23.40
2023-05-12T04:40:12.736Z,26.48
2023-05-12T04:42:40.298Z,25.10
2023-05-12T04:45:11.039Z,25.23
2023-05-12T04:47:39.451Z,27.63
2023-05-12T04:50:07.478Z,28.25
2023-05-12T04:52:34.663Z,28.25
2023-05-12T04:55:02.518Z,28.25
2023-05-12T04:57:29.862Z,27.45
2023-05-12T04:59:59.284Z,30.98
2023-05-12T05:02:29.678Z,27.52
2023-05-12T05:04:57.447Z,29.55
2023-05-12T05:07:25.640Z,28.17
2023-05-12T05:09:55.014Z,29.48
2023-05-12T05:12:22.465Z,31.90
2023-05-12T05:14:49.921Z,32.67
2023-05-12T05:17:17.786Z,33.65
2023-05-12T05:19:57.333Z,31.90
2023-05-12T05:22:28.743Z,33.60
2023-05-12T05:24:56.373Z,32.40
2023-05-12T05:27:23.835Z,33.50
2023-05-12T05:29:51.608Z,33.95
2023-05-12T05:32:18.911Z,36.65
2023-05-12T05:34:46.350Z,33.60
2023-05-12T05:37:13.647Z,36.20
2023-05-12T05:39:41.268Z,34.30
2023-05-12T05:42:08.775Z,37.25
2023-05-12T05:44:36.623Z,39.17
2023-05-12T05:47:05.710Z,38.60
2023-05-12T05:49:33.708Z,38.08
2023-05-12T05:52:02.080Z,36.38
2023-05-12T05:54:29.463Z,40.55
2023-05-12T05:56:56.818Z,38.20
2023-05-12T05:59:24.473Z,37.45
2023-05-12T06:01:51.992Z,40.63
2023-05-12T06:04:19.599Z,37.20
2023-05-12T06:06:47.670Z,39.45
2023-05-12T06:09:16.019Z,43.17
2023-05-12T06:11:43.449Z,40.17
2023-05-12T06:14:12.400Z,39.92
2023-05-12T06:16:39.965Z,42.03
2023-05-12T06:19:09.360Z,41.72
2023-05-12T06:21:38.875Z,39.03
2023-05-12T06:24:06.737Z,41.13
2023-05-12T06:26:34.863Z,40.45
2023-05-12T06:29:02.169Z,42.10
2023-05-12T06:31:31.419Z,41.15
2023-05-12T06:33:58.795Z,40.58
2023-05-12T06:36:26.348Z,39.78
2023-05-12T06:38:54.015Z,39.13
2023-05-12T06:41:22.092Z,43.05
2023-05-12T06:43:49.309Z,38.53
2023-05-12T06:46:16.633Z,38.90
2023-05-12T06:48:43.884Z,37.40
2023-05-12T06:51:11.242Z,38.55
2023-05-12T06:53:38.658Z,42.80
2023-05-12T06:56:06.209Z,40.45
2023-05-12T06:58:33.538Z,40.72
2023-05-12T07:01:01.076Z,42.05
2023-05-12T07:03:32.258Z,40.60
2023-05-12T07:05:59.602Z,38.42
2023-05-12T07:08:31.583Z,39.53
2023-05-12T07:11:03.112Z,40.33
2023-05-12T07:13:31.730Z,41.80
2023-05-12T07:16:00.252Z,40.67
2023-05-12T07:18:27.654Z,41.35
2023-05-12T07:20:55.758Z,42.15
2023-05-12T07:23:23.033Z,38.20
2023-05-12T07:25:50.234Z,41.53
2023-05-12T07:28:17.746Z,40.92
2023-05-12T07:30:44.981Z,38.78
2023-05-12T07:33:12.343Z,39.95
2023-05-12T07:35:39.777Z,39.63
2023-05-12T07:38:09.468Z,40.38
2023-05-12T07:40:36.843Z,38.20
2023-05-12T07:43:04.126Z,36.08
2023-05-12T07:45:31.353Z,38.97
2023-05-12T07:47:58.655Z,40.50
2023-05-12T07:50:26.411Z,35.97
2023-05-12T07:52:54.197Z,37.17
2023-05-12T07:55:23.020Z,38.15
2023-05-12T07:57:50.920Z,37.28
2023-05-12T08:00:19.065Z,33.78
2023-05-12T08:02:47.832Z,36.13
2023-05-12T08:05:15.621Z,37.45
2023-05-12T08:07:44.015Z,34.72
2023-05-12T08:10:13.144Z,35.63
2023-05-12T08:12:41.680Z,36.72
2023-05-12T08:15:09.902Z,32.22
2023-05-12T08:17:37.453Z,33.47
2023-05-12T08:20:05.284Z,35.22
2023-05-12T08:22:32.546Z,34.38
2023-05-12T08:24:59.790Z,31.83
2023-05-12T08:27:27.396Z,32.65
2023-05-12T08:29:56.855Z,28.90
2023-05-12T08:32:24.525Z,30.30
2023-05-12T08:34:52.141Z,29.50
2023-05-12T08:37:19.564Z,30.38
2023-05-12T08:39:46.842Z,32.40
2023-05-12T08:42:35.239Z,30.38
2023-05-12T08:45:03.845Z,32.55
2023-05-12T08:47:33.652Z,31.55
2023-05-12T08:50:03.538Z,30.60
2023-05-12T08:52:36.029Z,29.52
2023-05-12T08:55:05.107Z,28.83
2023-05-12T08:57:33.765Z,27.48
2023-05-12T09:00:04.815Z,27.88
2023-05-12T09:02:44.667Z,28.90
2023-05-12T09:05:16.072Z,26.05
2023-05-12T09:07:47.152Z,26.15
2023-05-12T09:10:32.802Z,24.88
2023-05-12T09:13:22.881Z,25.60
2023-05-12T09:15:53.876Z,25.05
2023-05-12T09:18:21.836Z,22.58
2023-05-12T09:20:49.446Z,23.55
2023-05-12T09:23:19.102Z,21.38
2023-05-12T09:25:49.675Z,22.57
2023-05-12T09:30:44.867Z,18.25
2023-05-12T09:33:13.313Z,18.17
2023-05-12T09:35:45.035Z,17.55
2023-05-12T09:38:17.105Z,17.92
2023-05-12T09:40:45.589Z,18.50
2023-05-12T09:43:15.396Z,17.48
2023-05-12T09:45:44.388Z,17.05
2023-05-12T09:48:13.014Z,17.13
2023-05-12T09:50:47.658Z,16.45
2023-05-12T09:53:17.891Z,16.55
2023-05-12T09:55:46.758Z,16.35
2023-05-12T09:58:19.192Z,15.45
2023-05-12T10:03:18.759Z,14.98
2023-05-12T10:06:01.601Z,15.32
2023-05-12T10:08:42.384Z,16.75
2023-05-12T10:11:10.133Z,13.93
2023-05-12T10:13:38.522Z,15.13
2023-05-12T10:16:07.124Z,13.18
2023-05-12T10:18:35.152Z,15.00
2023-05-12T10:21:04.021Z,14.82
2023-05-12T10:23:31.858Z,12.50
2023-05-12T10:26:07.305Z,12.30
2023-05-12T10:28:34.601Z,11.63
2023-05-12T10:31:03.492Z,10.80
2023-05-12T10:33:31.161Z,10.93
2023-05-12T10:35:59.791Z,10.35
2023-05-12T10:38:27.236Z,10.63
2023-05-12T10:40:58.822Z,9.70
2023-05-12T10:43:38.651Z,10.48
2023-05-12T10:46:26.637Z,7.88
2023-05-12T10:49:06.063Z,7.93
2023-05-12T10:51:54.645Z,7.97
2023-05-12T10:54:25.463Z,9.07
2023-05-12T10:56:57.586Z,8.80
2023-05-12T10:59:27.169Z,7.57
2023-05-12T11:02:03.091Z,7.70
2023-05-12T11:04:37.609Z,8.23
2023-05-12T11:07:08.339Z,7.57
2023-05-12T11:09:44.619Z,7.75
2023-05-12T11:12:17.916Z,7.43
2023-05-12T11:14:47.379Z,8.00
2023-05-12T11:17:16.270Z,6.50
2023-05-12T11:19:51.302Z,6.50
2023-05-12T11:22:21.640Z,6.43
2023-05-12T11:27:20.084Z,5.72
2023-05-12T11:32:23.425Z,5.97
2023-05-12T11:34:51.125Z,5.95
2023-05-12T11:37:21.573Z,6.13
2023-05-12T11:39:49.463Z,6.18
2023-05-12T11:42:19.818Z,5.43
2023-05-12T11:44:49.589Z,5.40
2023-05-12T11:47:19.159Z,5.10
2023-05-12T11:49:48.954Z,3.95
2023-05-12T11:52:17.346Z,4.15
2023-05-12T11:55:00.354Z,4.50
2023-05-12T11:57:35.087Z,4.60
2023-05-12T12:00:06.943Z,4.65
2023-05-12T12:02:36.260Z,4.53
2023-05-12T12:05:04.168Z,3.80
2023-05-12T12:07:36.636Z,4.00
2023-05-12T12:10:17.233Z,4.03
2023-05-12T12:12:46.507Z,3.30
2023-05-12T12:15:13.824Z,3.58
2023-05-12T12:17:41.183Z,5.32
2023-05-12T12:20:14.471Z,5.18
2023-05-12T12:22:41.758Z,4.82
2023-05-12T12:25:11.109Z,5.85
2023-05-12T12:27:43.712Z,7.45
2023-05-12T12:30:11.897Z,7.25
2023-05-12T12:32:40.729Z,6.70
2023-05-12T12:35:09.224Z,5.80
2023-05-12T12:37:36.559Z,5.20
2023-05-12T12:40:08.549Z,4.88
2023-05-12T12:42:37.465Z,7.03
2023-05-12T12:45:08.425Z,5.80
2023-05-12T12:47:38.270Z,5.35
2023-05-12T12:50:10.889Z,4.75
2023-05-12T12:52:38.659Z,4.15
2023-05-12T12:55:07.296Z,4.82
2023-05-12T12:57:35.120Z,4.40
2023-05-12T13:00:04.633Z,4.05
2023-05-12T13:02:32.233Z,4.60
2023-05-12T13:05:04.168Z,4.40
2023-05-12T13:07:32.166Z,3.78
2023-05-12T13:09:59.434Z,3.53
2023-05-12T13:12:26.829Z,3.22
2023-05-12T13:14:54.271Z,2.97
2023-05-12T13:17:21.527Z,2.47
2023-05-12T13:19:48.782Z,2.83
2023-05-12T13:22:16.508Z,2.63
2023-05-12T13:24:45.465Z,2.67
2023-05-12T13:27:12.773Z,2.53
2023-05-12T13:29:42.127Z,2.60
2023-05-12T13:32:09.510Z,2.60
2023-05-12T13:34:36.765Z,1.80
2023-05-12T13:37:04.502Z,1.90
2023-05-12T13:39:32.073Z,1.40
2023-05-12T13:41:59.898Z,2.20
2023-05-12T13:44:27.596Z,2.30
2023-05-12T13:46:54.798Z,2.47
2023-05-12T13:49:23.076Z,2.25
2023-05-12T13:51:51.892Z,1.90
2023-05-12T13:54:19.255Z,2.65
2023-05-12T13:56:46.500Z,2.38
2023-05-12T13:59:13.822Z,2.55
2023-05-12T14:01:41.257Z,2.22
2023-05-12T14:04:08.728Z,2.78
2023-05-12T14:06:36.539Z,2.28
2023-05-12T14:09:07.523Z,2.25
2023-05-12T14:11:35.469Z,2.10
2023-05-12T14:14:03.643Z,2.75
2023-05-12T14:16:31.519Z,2.88
2023-05-12T14:19:00.452Z,2.35
2023-05-12T14:21:28.029Z,2.30
2023-05-12T14:23:57.222Z,3.35
2023-05-12T14:26:26.135Z,3.67
2023-05-12T14:28:53.537Z,2.83
2023-05-12T14:31:22.345Z,3.58
2023-05-12T14:33:49.714Z,3.42
2023-05-12T14:36:17.054Z,2.80
2023-05-12T14:38:44.658Z,2.83
2023-05-12T14:41:12.009Z,3.05
2023-05-12T14:43:39.420Z,2.80
2023-05-12T14:46:09.027Z,3.00
2023-05-12T14:48:36.391Z,3.75
2023-05-12T14:51:05.061Z,2.65
2023-05-12T14:53:32.725Z,3.42
2023-05-12T14:56:01.384Z,3.63
2023-05-12T14:58:28.725Z,3.80
2023-05-12T15:00:56.240Z,4.57
2023-05-12T15:03:24.193Z,4.10
2023-05-12T15:08:21.899Z,4.53
2023-05-12T15:10:49.882Z,4.15
2023-05-12T15:13:20.369Z,4.60
2023-05-12T15:15:47.856Z,5.03
2023-05-12T15:18:15.642Z,6.07
2023-05-12T15:20:46.225Z,6.05
2023-05-12T15:23:13.731Z,8.07
2023-05-12T15:25:42.085Z,7.75
2023-05-12T15:28:10.005Z,7.97
2023-05-12T15:30:37.888Z,8.65
2023-05-12T15:33:08.494Z,9.30
2023-05-12T15:35:36.163Z,9.32
2023-05-12T15:38:06.123Z,9.88
2023-05-12T15:40:34.636Z,8.93
2023-05-12T15:43:03.440Z,8.95
2023-05-12T15:45:31.513Z,9.02
2023-05-12T15:47:59.200Z,9.05
2023-05-12T15:50:26.737Z,9.45
2023-05-12T15:52:54.074Z,9.40
2023-05-12T15:55:21.622Z,9.98
2023-05-12T15:57:50.159Z,9.30
2023-05-12T16:00:17.895Z,10.70
2023-05-12T16:02:47.920Z,8.77
2023-05-12T16:05:15.348Z,8.75
2023-05-12T16:07:43.328Z,7.07
2023-05-12T16:10:11.914Z,7.90
2023-05-12T16:12:40.265Z,7.57
2023-05-12T16:15:08.654Z,6.18
2023-05-12T16:17:36.269Z,6.18
2023-05-12T16:20:05.309Z,6.60
2023-05-12T16:22:32.558Z,5.50
2023-05-12T16:24:59.928Z,5.57
2023-05-12T16:27:27.307Z,6.00
2023-05-12T16:29:55.788Z,5.90
2023-05-12T16:32:23.621Z,5.15
2023-05-12T16:34:51.402Z,5.43
2023-05-12T16:37:18.769Z,5.13
2023-05-12T16:39:46.085Z,6.00
2023-05-12T16:42:13.452Z,6.00
2023-05-12T16:44:40.775Z,6.22
2023-05-12T16:47:09.560Z,5.43
2023-05-12T16:49:36.911Z,5.55
2023-05-12T16:52:06.012Z,4.90
2023-05-12T16:54:33.376Z,4.97
2023-05-12T16:57:04.945Z,5.20
2023-05-12T16:59:36.330Z,4.10
2023-05-12T17:02:05.166Z,3.90
2023-05-12T17:04:32.743Z,3.55
2023-05-12T17:07:01.569Z,3.05
2023-05-12T17:09:28.915Z,3.10
2023-05-12T17:11:56.520Z,2.75
2023-05-12T17:14:23.834Z,2.13
2023-05-12T17:16:51.638Z,2.78
2023-05-12T17:19:19.016Z,3.05
2023-05-12T17:21:46.631Z,2.63
2023-05-12T17:24:14.498Z,2.65
2023-05-12T17:26:42.304Z,2.40
2023-05-12T17:29:09.822Z,2.53
2023-05-12T17:31:37.742Z,2.50
2023-05-12T17:34:06.033Z,2.30
2023-05-12T17:36:33.383Z,2.75
2023-05-12T17:39:00.909Z,2.38
2023-05-12T17:41:29.314Z,2.13
2023-05-12T17:43:56.906Z,2.80
2023-05-12T17:46:24.609Z,2.47
2023-05-12T17:48:52.320Z,2.13
2023-05-12T17:51:20.056Z,2.33
2023-05-12T17:53:47.327Z,2.30
2023-05-12T17:56:14.577Z,2.40
2023-05-12T17:58:42.842Z,2.10
2023-05-12T18:01:10.492Z,2.08
2023-05-12T18:03:38.100Z,2.00
2023-05-12T18:06:05.846Z,1.90
2023-05-12T18:08:33.155Z,2.58
2023-05-12T18:11:00.642Z,2.20
2023-05-12T18:13:28.106Z,1.80
2023-05-12T18:15:55.518Z,2.63
2023-05-12T18:18:22.836Z,2.10
2023-05-12T18:20:50.914Z,1.88
2023-05-12T18:23:18.452Z,1.73
2023-05-12T18:25:47.467Z,1.90
2023-05-12T18:28:15.113Z,2.05
2023-05-12T18:30:42.749Z,2.05
2023-05-12T18:33:10.752Z,2.00
2023-05-12T18:35:38.190Z,2.30
2023-05-12T18:38:05.723Z,2.45
2023-05-12T18:40:33.032Z,2.92
2023-05-12T18:43:02.878Z,2.60
2023-05-12T18:45:32.742Z,2.95
2023-05-12T18:48:00.832Z,2.80
2023-05-12T18:50:28.251Z,3.00
2023-05-12T18:52:55.895Z,2.53
2023-05-12T18:55:23.988Z,3.00
2023-05-12T18:57:51.389Z,2.53
2023-05-12T19:00:23.559Z,2.42
2023-05-12T19:02:53.505Z,2.22
2023-05-12T19:05:21.277Z,1.80
2023-05-12T19:07:48.819Z,2.25
2023-05-12T19:10:16.443Z,2.10
2023-05-12T19:12:48.219Z,1.75
2023-05-12T19:15:16.328Z,2.20
2023-05-12T19:17:43.910Z,2.22
2023-05-12T19:20:12.046Z,2.40
2023-05-12T19:22:39.341Z,2.08
2023-05-12T19:25:07.138Z,2.00
2023-05-12T19:27:34.606Z,2.05
2023-05-12T19:30:02.665Z,2.13
2023-05-12T19:32:31.525Z,1.90
2023-05-12T19:35:00.222Z,1.98
2023-05-12T19:37:27.951Z,2.50
2023-05-12T19:39:55.720Z,2.45
2023-05-12T19:42:23.612Z,2.22
2023-05-12T19:44:51.307Z,2.40
2023-05-12T19:47:19.375Z,2.30
2023-05-12T19:49:47.291Z,2.10
2023-05-12T19:52:14.724Z,2.10
2023-05-12T19:54:43.309Z,2.35
2023-05-12T19:57:10.826Z,2.13
2023-05-12T19:59:41.380Z,2.40
2023-05-12T20:02:12.957Z,2.20
2023-05-12T20:04:41.189Z,2.63
2023-05-12T20:07:08.719Z,2.67
2023-05-12T20:09:37.036Z,2.83
2023-05-12T20:12:07.795Z,2.83
2023-05-12T20:14:36.486Z,3.00
2023-05-12T20:17:07.442Z,2.40
2023-05-12T20:19:38.642Z,2.13
2023-05-12T20:22:06.603Z,2.90
2023-05-12T20:24:34.096Z,2.72
2023-05-12T20:27:03.721Z,2.50
2023-05-12T20:29:34.721Z,2.47
2023-05-12T20:32:05.496Z,2.90
2023-05-12T20:34:33.587Z,2.75
2023-05-12T20:37:01.219Z,3.00
2023-05-12T20:39:29.832Z,2.40
2023-05-12T20:41:57.598Z,2.90
2023-05-12T20:44:26.532Z,2.88
2023-05-12T20:46:54.617Z,3.55
2023-05-12T20:49:22.008Z,3.42
2023-05-12T20:51:49.462Z,3.17
2023-05-12T20:54:17.059Z,3.10
2023-05-12T20:56:44.671Z,3.75
2023-05-12T20:59:12.461Z,3.10
2023-05-12T21:01:39.746Z,3.25
2023-05-12T21:04:07.475Z,3.58
2023-05-12T21:06:36.197Z,3.53
2023-05-12T21:09:05.207Z,3.55
2023-05-12T21:11:32.762Z,3.40
2023-05-12T21:14:00.561Z,3.50
2023-05-12T21:16:29.044Z,3.45
2023-05-12T21:18:57.063Z,3.58
2023-05-12T21:21:24.522Z,3.15
2023-05-12T21:23:51.889Z,3.50
2023-05-12T21:26:19.625Z,4.10
2023-05-12T21:28:47.157Z,3.75
2023-05-12T21:31:14.438Z,3.80
2023-05-12T21:33:42.405Z,4.07
2023-05-12T21:36:09.769Z,4.22
2023-05-12T21:38:37.031Z,3.60
2023-05-12T21:41:04.403Z,3.60
2023-05-12T21:43:31.672Z,3.55
2023-05-12T21:46:03.441Z,3.78
2023-05-12T21:48:32.082Z,3.55
2023-05-12T21:51:02.252Z,3.70
2023-05-12T21:53:29.846Z,3.63
2023-05-12T21:55:57.135Z,3.42
2023-05-12T21:58:27.076Z,3.72
2023-05-12T22:00:54.477Z,3.67
2023-05-12T22:03:22.900Z,4.00
2023-05-12T22:05:50.596Z,3.80
2023-05-12T22:08:19.444Z,3.90
2023-05-12T22:10:47.166Z,4.15
2023-05-12T22:13:15.655Z,3.65
2023-05-12T22:15:43.423Z,3.95
2023-05-12T22:18:10.968Z,3.67
2023-05-12T22:20:38.352Z,4.22
2023-05-12T22:23:06.251Z,4.53
2023-05-12T22:25:33.556Z,3.97
2023-05-12T22:28:00.844Z,4.20
2023-05-12T22:30:28.092Z,4.18
2023-05-12T22:32:55.572Z,3.90
2023-05-12T22:35:22.921Z,3.65
2023-05-12T22:37:50.390Z,4.35
2023-05-12T22:40:18.183Z,4.35
2023-05-12T22:42:46.836Z,4.68
2023-05-12T22:45:14.147Z,4.15
2023-05-12T22:47:41.867Z,4.43
2023-05-12T22:50:10.683Z,4.63
2023-05-12T22:52:38.272Z,4.22
2023-05-12T22:55:06.007Z,4.65
2023-05-12T22:57:33.312Z,4.80
2023-05-12T23:00:00.856Z,5.40
2023-05-12T23:02:28.415Z,4.03
2023-05-12T23:04:55.923Z,4.38
2023-05-12T23:07:23.574Z,4.57
2023-05-12T23:09:52.449Z,4.50
2023-05-12T23:12:21.071Z,4.28
2023-05-12T23:14:48.472Z,4.63
2023-05-12T23:17:16.055Z,4.00
2023-05-12T23:19:43.499Z,4.18
2023-05-12T23:22:10.834Z,4.05
2023-05-12T23:24:38.285Z,4.55
2023-05-12T23:27:06.005Z,4.22
2023-05-12T23:29:34.744Z,5.38
2023-05-12T23:32:02.643Z,4.53
2023-05-12T23:34:33.363Z,4.50
2023-05-12T23:39:27.949Z,4.20
2023-05-12T23:41:55.368Z,4.38
2023-05-12T23:44:22.832Z,4.55
2023-05-12T23:46:50.507Z,4.00
2023-05-12T23:49:18.011Z,4.80
2023-05-12T23:51:46.298Z,4.70
2023-05-12T23:54:13.557Z,4.53
2023-05-12T23:56:42.193Z,4.82
2023-05-12T23:59:09.590Z,4.80
